Time;durP1;ratioP1;P1;durP2;ratioP2;P2;SDS_P1;SDS_P2;PMS_P1;PMS_P2;Temp;Humidity;BMP_temperature;BMP_pressure;BME280_temperature;BME280_humidity;BME280_pressure;Samples;Min_cycle;Max_cycle;Signal;HPM_P1;HPM_P2
2022/06/02 00:00:22;;;;;;;;;2.25;2.25;;;;;21.36;33.54;101303.88;4979737;28;45317;-52
2022/06/02 00:02:59;;;;;;;;;4.25;3.50;;;;;21.35;33.28;101305.69;4979545;28;45459;-49
2022/06/02 00:05:51;;;;;;;;;3.00;3.00;;;;;21.34;33.58;101311.00;4979226;28;45997;-51
2022/06/02 00:08:36;;;;;;;;;3.00;2.75;;;;;21.34;33.50;101311.00;4979279;28;45344;-52
2022/06/02 00:11:09;;;;;;;;;3.00;3.00;;;;;21.33;33.34;101319.88;4979389;28;45480;-48
2022/06/02 00:13:53;;;;;;;;;3.00;2.25;;;;;21.31;33.52;101318.19;4979773;28;45222;-47
2022/06/02 00:16:30;;;;;;;;;3.00;2.75;;;;;21.31;33.45;101312.03;4979173;28;46977;-51
2022/06/02 00:19:05;;;;;;;;;5.50;4.00;;;;;21.29;33.34;101322.66;4979303;28;45217;-48
2022/06/02 00:21:38;;;;;;;;;1.50;1.50;;;;;21.29;33.73;101320.03;4979459;28;45227;-49
2022/06/02 00:24:28;;;;;;;;;3.00;3.00;;;;;21.30;33.55;101320.88;4979734;28;45344;-51
2022/06/02 00:26:53;;;;;;;;;2.25;2.25;;;;;21.29;33.32;101321.78;4978900;28;46925;-51
2022/06/02 00:29:39;;;;;;;;;3.33;3.33;;;;;21.29;33.78;101335.84;4979040;28;45375;-50
2022/06/02 00:32:24;;;;;;;;;4.00;4.00;;;;;21.27;33.45;101332.44;4979466;28;45347;-46
2022/06/02 00:35:16;;;;;;;;;3.75;3.00;;;;;21.29;33.70;101335.84;4979205;28;45839;-50
2022/06/02 00:37:49;;;;;;;;;4.00;2.00;;;;;21.29;33.44;101330.56;4970372;28;45427;-48
2022/06/02 00:40:15;;;;;;;;;2.00;2.00;;;;;21.30;33.57;101331.41;4978874;28;45271;-49
2022/06/02 00:42:40;;;;;;;;;2.50;2.50;;;;;21.30;33.68;101334.06;4978896;28;45416;-49
2022/06/02 00:45:11;;;;;;;;;4.00;2.33;;;;;21.28;33.58;101323.59;4979409;28;45229;-50
2022/06/02 00:47:58;;;;;;;;;2.25;2.25;;;;;21.27;33.67;101321.88;4978728;28;47372;-53
2022/06/02 00:50:54;;;;;;;;;2.25;2.25;;;;;21.28;33.87;101330.63;4978641;28;45323;-52
2022/06/02 00:53:22;;;;;;;;;3.00;3.00;;;;;21.28;33.62;101328.00;4978681;28;45428;-43
2022/06/02 00:59:11;;;;;;;;;3.50;3.00;;;;;21.26;33.80;101322.81;4978461;28;45367;-48
2022/06/02 01:01:37;;;;;;;;;2.00;2.00;;;;;21.26;33.68;101325.44;4978640;28;45340;-50
2022/06/02 01:04:09;;;;;;;;;3.00;2.00;;;;;21.25;33.68;101317.63;4977403;28;45337;-51
2022/06/02 01:06:57;;;;;;;;;2.25;2.25;;;;;21.24;33.44;101316.75;4978785;28;45511;-49
2022/06/02 01:09:22;;;;;;;;;2.50;2.50;;;;;21.25;33.67;101315.00;4977262;28;45367;-50
2022/06/02 01:12:14;;;;;;;;;2.00;2.00;;;;;21.24;33.86;101319.41;4993495;28;45443;-48
2022/06/02 01:14:58;;;;;;;;;2.75;2.00;;;;;21.26;33.69;101319.34;4993745;28;45396;-52
2022/06/02 01:17:36;;;;;;;;;2.00;2.00;;;;;21.24;33.97;101323.84;4978567;28;45238;-48
2022/06/02 01:20:31;;;;;;;;;2.25;2.25;;;;;21.24;33.73;101315.91;4978243;28;46148;-48
2022/06/02 01:23:00;;;;;;;;;4.50;3.00;;;;;21.23;33.56;101315.06;4978011;28;45488;-45
2022/06/02 01:25:47;;;;;;;;;2.00;2.00;;;;;21.21;33.51;101311.66;4978278;28;45330;-50
2022/06/02 01:28:35;;;;;;;;;2.25;2.25;;;;;21.21;33.85;101322.22;4978539;28;45338;-49
2022/06/02 01:31:15;;;;;;;;;2.00;2.00;;;;;21.21;33.64;101310.78;4977916;28;46413;-50
2022/06/02 01:34:20;;;;;;;;;2.75;2.75;;;;;21.20;34.02;101317.88;4978434;28;45891;-48
2022/06/02 01:37:27;;;;;;;;;2.25;2.25;;;;;21.17;33.82;101315.38;4978137;28;45386;-47
2022/06/02 01:40:04;;;;;;;;;6.00;3.00;;;;;21.18;33.75;101311.81;4967749;28;45586;-50
2022/06/02 01:42:57;;;;;;;;;3.00;3.00;;;;;21.17;34.13;101316.22;4977956;28;46353;-49
2022/06/02 01:45:44;;;;;;;;;3.25;3.25;;;;;21.16;34.25;101314.53;4992870;28;45836;-42
2022/06/02 01:48:16;;;;;;;;;3.25;3.25;;;;;21.16;34.36;101324.22;4978151;28;45222;-51
2022/06/02 01:51:13;;;;;;;;;3.75;3.00;;;;;21.16;34.25;101329.47;4978387;28;45332;-44
2022/06/02 01:54:05;;;;;;;;;5.00;2.00;;;;;21.14;33.92;101334.84;4969015;28;46990;-46
2022/06/02 01:57:02;;;;;;;;;4.00;3.00;;;;;21.15;34.10;101333.91;4977909;28;45841;-48
2022/06/02 01:59:30;;;;;;;;;4.00;2.50;;;;;21.14;34.18;101336.59;4977789;28;45293;-49
2022/06/02 02:02:25;;;;;;;;;3.00;3.00;;;;;21.14;34.27;101331.34;4977846;28;45543;-49
2022/06/02 02:05:02;;;;;;;;;4.00;3.00;;;;;21.14;33.89;101332.22;4977495;28;45407;-48
2022/06/02 02:07:42;;;;;;;;;2.00;2.00;;;;;21.14;33.88;101333.97;4977459;28;45841;-45
2022/06/02 02:10:26;;;;;;;;;5.00;3.00;;;;;21.14;34.27;101331.34;4977817;28;45424;-44
2022/06/02 02:13:22;;;;;;;;;2.25;2.25;;;;;21.13;33.96;101324.34;4977872;28;45237;-46
2022/06/02 02:15:58;;;;;;;;;3.25;3.25;;;;;21.12;34.06;101320.88;4976940;28;46588;-46
2022/06/02 02:18:42;;;;;;;;;2.75;2.75;;;;;21.12;34.44;101325.28;4977405;28;45332;-49
2022/06/02 02:21:17;;;;;;;;;3.00;3.00;;;;;21.13;34.11;101324.34;4977624;28;45237;-46
2022/06/02 02:24:02;;;;;;;;;3.00;3.00;;;;;21.12;33.97;101323.53;4977838;28;45331;-53
2022/06/02 02:26:45;;;;;;;;;2.00;2.00;;;;;21.10;34.27;101316.63;4977158;28;47154;-47
2022/06/02 02:29:43;;;;;;;;;4.50;3.50;;;;;21.10;34.37;101314.84;4977365;28;45423;-50
2022/06/02 02:32:34;;;;;;;;;4.00;2.00;;;;;21.10;34.20;101314.00;4969985;28;45247;-49
2022/06/02 02:35:10;;;;;;;;;4.00;2.25;;;;;21.10;34.58;101314.84;4977398;28;45418;-50
2022/06/02 02:37:52;;;;;;;;;2.25;2.25;;;;;21.09;34.26;101318.38;4977007;28;46214;-49
2022/06/02 02:40:27;;;;;;;;;3.25;3.00;;;;;21.09;34.21;101313.13;4976936;28;45394;-49
2022/06/02 02:42:59;;;;;;;;;3.00;2.00;;;;;21.09;34.16;101314.91;4976969;28;45384;-49
2022/06/02 02:45:57;;;;;;;;;4.75;3.75;;;;;21.07;34.58;101306.22;4977298;28;45237;-51
2022/06/02 02:48:23;;;;;;;;;2.25;2.25;;;;;21.07;34.09;101308.88;4967051;28;47971;-48
2022/06/02 02:51:15;;;;;;;;;3.25;3.25;;;;;21.05;34.31;101310.72;4976837;28;45830;-49
2022/06/02 02:53:51;;;;;;;;;3.25;3.25;;;;;21.06;34.29;101330.88;4976855;28;45298;-48
2022/06/02 02:56:40;;;;;;;;;3.25;3.25;;;;;21.04;34.18;101327.47;4977460;28;45824;-51
2022/06/02 02:59:19;;;;;;;;;4.00;3.00;;;;;21.04;34.23;101322.19;4976778;28;45378;-48
2022/06/02 03:01:59;;;;;;;;;2.75;2.75;;;;;21.04;34.15;101324.81;4977083;28;45406;-47
2022/06/02 03:04:50;;;;;;;;;3.00;3.00;;;;;21.02;34.58;101319.63;4976921;28;45698;-46
2022/06/02 03:07:16;;;;;;;;;3.00;3.00;;;;;21.02;34.24;101322.28;4975840;28;45299;-47
2022/06/02 03:10:03;;;;;;;;;2.00;2.00;;;;;21.03;34.57;101320.47;4976568;28;46068;-47
2022/06/02 03:12:51;;;;;;;;;3.00;3.00;;;;;21.03;34.74;101323.13;4972779;28;45382;-47
2022/06/02 03:15:35;;;;;;;;;3.00;3.00;;;;;21.03;34.52;101317.84;4976867;28;45178;-43
2022/06/02 03:18:16;;;;;;;;;3.75;3.00;;;;;21.01;34.42;101310.88;4976922;28;45434;-48
2022/06/02 03:20:57;;;;;;;;;4.00;4.00;;;;;21.00;34.35;101303.88;4976618;28;46334;-42
2022/06/02 03:23:43;;;;;;;;;3.00;3.00;;;;;21.00;34.46;101314.44;4976594;28;45749;-49
2022/06/02 03:26:22;;;;;;;;;3.25;3.25;;;;;21.00;34.77;101321.50;4976806;28;45220;-45
2022/06/02 03:29:03;;;;;;;;;3.00;3.00;;;;;21.00;34.68;101330.22;4979347;28;45384;-44
2022/06/02 03:31:42;;;;;;;;;4.00;4.00;;;;;21.00;34.81;101324.97;4980077;28;46889;-47
2022/06/02 03:34:15;;;;;;;;;4.00;4.00;;;;;20.99;34.24;101328.56;4979859;28;45324;-46
2022/06/02 03:36:54;;;;;;;;;3.00;3.00;;;;;21.00;34.50;101335.50;4980112;28;45237;-46
2022/06/02 03:39:22;;;;;;;;;3.75;3.75;;;;;21.00;34.58;101330.22;4980266;28;45523;-44
2022/06/02 03:42:27;;;;;;;;;4.00;4.00;;;;;21.00;34.72;101324.97;4980158;28;45591;-44
2022/06/02 03:45:17;;;;;;;;;3.25;3.25;;;;;20.99;34.79;101333.81;4979828;28;45390;-45
2022/06/02 03:47:42;;;;;;;;;4.75;4.75;;;;;20.99;34.38;101338.22;4979545;28;45371;-47
2022/06/02 03:50:38;;;;;;;;;4.00;4.00;;;;;20.99;34.84;101333.81;4980066;28;45252;-46
2022/06/02 03:53:09;;;;;;;;;5.75;5.00;;;;;21.00;34.33;101329.41;4979189;28;46380;-45
2022/06/02 03:55:47;;;;;;;;;3.25;3.25;;;;;20.99;34.71;101325.91;4979616;28;46034;-48
2022/06/02 03:58:31;;;;;;;;;4.75;4.25;;;;;20.99;34.29;101320.66;4979636;28;45339;-53
2022/06/02 04:01:00;;;;;;;;;2.25;2.25;;;;;20.99;34.45;101327.69;4979928;28;45285;-47
2022/06/02 04:03:28;;;;;;;;;4.00;4.00;;;;;20.98;34.45;101324.22;4979500;28;46362;-51
2022/06/02 04:06:22;;;;;;;;;4.00;4.00;;;;;20.97;35.02;101325.13;4979465;28;45343;-48
2022/06/02 04:09:18;;;;;;;;;4.25;3.25;;;;;20.97;34.82;101335.69;4980062;28;45261;-50
2022/06/02 04:15:01;;;;;;;;;7.50;4.25;;;;;20.96;34.46;101328.69;4979233;28;45751;-47
2022/06/02 04:17:26;;;;;;;;;3.00;3.00;;;;;20.96;34.59;101331.34;4979434;28;45250;-46
2022/06/02 04:20:34;;;;;;;;;4.00;4.00;;;;;20.97;34.82;101342.72;4979716;28;45570;-50
2022/06/02 04:23:27;;;;;;;;;5.00;5.00;;;;;20.96;34.58;101349.78;4979413;28;45414;-49
2022/06/02 04:26:16;;;;;;;;;3.00;3.00;;;;;20.95;34.45;101353.34;4978985;28;45401;-50
2022/06/02 04:29:03;;;;;;;;;4.50;4.50;;;;;20.95;34.67;101353.34;4979217;28;45304;-47
2022/06/02 04:31:44;;;;;;;;;3.00;3.00;;;;;20.95;34.81;101350.72;4979288;28;45253;-50
2022/06/02 04:34:19;;;;;;;;;5.75;4.00;;;;;20.94;34.83;101349.00;4979303;28;45346;-51
2022/06/02 04:37:00;;;;;;;;;4.00;4.00;;;;;20.95;34.61;101363.88;4978748;28;46895;-46
2022/06/02 04:39:55;;;;;;;;;4.00;4.00;;;;;20.94;34.48;101366.59;4978666;28;45790;-45
2022/06/02 04:42:36;;;;;;;;;4.00;4.00;;;;;20.94;34.79;101356.06;4979336;28;45292;-49
2022/06/02 04:45:05;;;;;;;;;3.00;3.00;;;;;20.94;34.77;101362.16;4979277;28;45399;-46
2022/06/02 04:47:39;;;;;;;;;4.50;3.00;;;;;20.93;34.99;101347.28;4978458;28;46119;-50
2022/06/02 04:50:18;;;;;;;;;4.00;4.00;;;;;20.94;34.88;101356.91;4978891;28;45337;-49
2022/06/02 04:53:21;;;;;;;;;4.00;4.00;;;;;20.93;34.79;101357.81;4978778;28;45332;-48
2022/06/02 04:56:10;;;;;;;;;3.00;2.00;;;;;20.93;34.89;101355.19;4979173;28;45662;-48
2022/06/02 04:58:54;;;;;;;;;4.00;4.00;;;;;20.92;34.71;101361.38;4978667;28;46224;-47
2022/06/02 05:01:37;;;;;;;;;3.75;3.75;;;;;20.92;34.63;101358.75;4978799;28;45875;-45
2022/06/02 05:04:12;;;;;;;;;4.75;4.00;;;;;20.90;34.59;101360.59;4978585;28;45408;-44
2022/06/02 05:06:49;;;;;;;;;3.75;3.75;;;;;20.90;34.77;101350.06;4993931;28;45356;-48
2022/06/02 05:09:36;;;;;;;;;4.75;4.75;;;;;20.89;34.43;101351.00;4978544;28;45373;-45
2022/06/02 05:12:11;;;;;;;;;4.75;4.00;;;;;20.88;34.56;101346.69;4978602;28;45197;-48
2022/06/02 05:14:45;;;;;;;;;3.25;3.25;;;;;20.89;34.75;101347.50;4978466;28;45373;-52
2022/06/02 05:17:45;;;;;;;;;4.75;4.50;;;;;20.89;34.62;101345.72;4978688;28;45395;-49
2022/06/02 05:20:20;;;;;;;;;4.00;4.00;;;;;20.90;34.76;101350.06;4978267;28;45360;-44
2022/06/02 05:23:23;;;;;;;;;4.50;3.75;;;;;20.91;34.53;101351.78;4978234;28;45821;-47
2022/06/02 05:26:13;;;;;;;;;4.75;4.75;;;;;20.92;34.59;101355.28;4978340;28;45269;-49
2022/06/02 05:28:58;;;;;;;;;8.25;5.00;;;;;20.92;34.67;101356.13;4978515;28;45371;-51
2022/06/02 05:31:53;;;;;;;;;5.00;5.00;;;;;20.92;34.63;101348.22;4978346;28;46210;-47
2022/06/02 05:34:18;;;;;;;;;5.25;5.25;;;;;20.92;34.95;101353.47;4978185;28;45332;-51
2022/06/02 05:37:24;;;;;;;;;4.00;4.00;;;;;20.94;34.68;101348.16;4978147;28;45419;-44
2022/06/02 05:40:03;;;;;;;;;4.00;4.00;;;;;20.93;35.06;101349.09;4960771;28;45451;-51
2022/06/02 05:42:53;;;;;;;;;4.25;4.25;;;;;20.95;34.99;101349.84;4977909;28;45277;-53
2022/06/02 05:45:39;;;;;;;;;5.75;4.75;;;;;20.95;34.63;101341.94;4977952;28;45376;-45
2022/06/02 05:48:10;;;;;;;;;5.50;4.25;;;;;20.97;34.89;101351.50;4977954;28;45412;-48
2022/06/02 05:50:47;;;;;;;;;4.75;4.75;;;;;20.95;34.57;101355.97;4977407;28;45489;-46
2022/06/02 05:53:21;;;;;;;;;4.50;3.50;;;;;20.97;35.02;101353.25;4977672;28;47170;-44
2022/06/02 05:56:14;;;;;;;;;7.00;5.00;;;;;20.96;34.66;101354.19;4977827;28;45301;-44
2022/06/02 05:59:18;;;;;;;;;5.00;4.25;;;;;20.96;34.47;101355.06;4977955;28;45229;-48
2022/06/02 06:01:52;;;;;;;;;5.00;5.00;;;;;20.96;34.88;101354.19;4956434;28;45733;-45
2022/06/02 06:04:25;;;;;;;;;4.00;4.00;;;;;20.97;34.46;101355.88;4974625;28;45332;-49
2022/06/02 06:07:01;;;;;;;;;3.25;3.25;;;;;20.96;34.67;101344.50;4977631;28;45423;-53
2022/06/02 06:09:51;;;;;;;;;6.00;5.25;;;;;20.97;34.62;101351.50;4978055;28;45312;-50
2022/06/02 06:12:29;;;;;;;;;5.50;5.00;;;;;20.98;34.54;101355.84;4977595;28;45344;-50
2022/06/02 06:15:03;;;;;;;;;5.00;5.00;;;;;20.97;34.59;101355.88;4977850;28;45319;-51
2022/06/02 06:18:06;;;;;;;;;6.00;4.00;;;;;20.96;35.01;101362.97;4977863;28;45355;-47
2022/06/02 06:20:40;;;;;;;;;4.75;4.75;;;;;20.97;34.39;101358.53;4977523;28;45435;-48
2022/06/02 06:23:29;;;;;;;;;4.25;4.00;;;;;20.98;34.97;101357.59;4977716;28;45387;-49
2022/06/02 06:26:19;;;;;;;;;5.50;5.00;;;;;20.98;34.80;101353.19;4973241;28;48534;-48
2022/06/02 06:29:05;;;;;;;;;6.00;6.00;;;;;21.00;34.56;101361.84;4977126;28;45266;-44
2022/06/02 06:32:01;;;;;;;;;7.50;5.25;;;;;20.98;34.86;101353.19;4966323;28;45256;-53
2022/06/02 06:34:44;;;;;;;;;4.00;4.00;;;;;21.00;34.72;101356.59;4978113;28;45174;-48
2022/06/02 06:37:22;;;;;;;;;4.50;4.00;;;;;21.01;34.95;101350.41;4976925;28;46321;-52
2022/06/02 06:40:07;;;;;;;;;4.00;4.00;;;;;21.04;35.16;101351.19;4976967;28;45935;-43
2022/06/02 06:42:43;;;;;;;;;7.00;4.25;;;;;21.03;35.08;101354.75;4975606;28;45494;-50
2022/06/02 06:45:17;;;;;;;;;5.00;5.00;;;;;21.05;35.21;101358.16;4977293;28;45353;-50
2022/06/02 06:48:07;;;;;;;;;4.50;4.50;;;;;21.06;34.89;101357.22;4976659;28;45589;-51
2022/06/02 06:50:40;;;;;;;;;4.25;4.25;;;;;21.08;34.81;101358.84;4976993;28;45765;-49
2022/06/02 06:53:23;;;;;;;;;5.75;5.75;;;;;21.10;34.73;101361.44;4976995;28;45352;-47
2022/06/02 06:56:14;;;;;;;;;5.00;4.75;;;;;21.13;34.80;101366.53;4977250;28;45309;-55
2022/06/02 06:59:07;;;;;;;;;4.50;4.50;;;;;21.17;35.27;101363.66;4976991;28;46402;-47
2022/06/02 07:01:44;;;;;;;;;5.75;5.75;;;;;21.20;35.05;101365.31;4991787;28;45823;-46
2022/06/02 07:04:30;;;;;;;;;5.50;4.25;;;;;21.21;35.27;101361.75;4976878;28;45358;-44
2022/06/02 07:07:27;;;;;;;;;6.50;5.00;;;;;21.24;34.88;101368.66;4977230;28;45217;-50
2022/06/02 07:10:08;;;;;;;;;6.00;6.00;;;;;21.24;35.20;101366.00;4976455;28;47216;-47
2022/06/02 07:12:52;;;;;;;;;4.00;4.00;;;;;21.25;35.24;101371.19;4976512;28;45892;-47
2022/06/02 07:15:22;;;;;;;;;10.50;7.00;;;;;21.25;35.57;101368.56;4976628;28;45317;-49
2022/06/02 07:18:10;;;;;;;;;6.00;5.00;;;;;21.26;35.62;101370.28;4976745;28;45496;-48
2022/06/02 07:20:41;;;;;;;;;5.25;5.00;;;;;21.27;35.36;101371.97;4976696;28;45433;-50
2022/06/02 07:23:31;;;;;;;;;6.00;6.00;;;;;21.30;36.00;101368.31;4980326;28;45805;-47
2022/06/02 07:26:43;;;;;;;;;8.50;4.25;;;;;21.33;35.94;101372.63;4975356;28;45357;-49
2022/06/02 07:29:22;;;;;;;;;8.00;7.00;;;;;21.34;36.48;101366.38;4970690;28;45360;-45
2022/06/02 07:32:14;;;;;;;;;5.00;5.00;;;;;21.37;36.26;101366.25;4974976;28;47289;-49
2022/06/02 07:35:26;;;;;;;;;8.50;5.50;;;;;21.39;36.44;101369.66;4976044;28;45428;-47
2022/06/02 07:37:54;;;;;;;;;5.00;5.00;;;;;21.42;36.11;101366.88;4976440;28;45382;-49
2022/06/02 07:40:28;;;;;;;;;12.00;8.00;;;;;21.43;36.37;101368.59;4976369;28;45543;-48
2022/06/02 07:43:35;;;;;;;;;10.25;8.00;;;;;21.46;36.61;101376.31;4976243;28;47181;-48
2022/06/02 07:46:24;;;;;;;;;6.25;6.25;;;;;21.48;37.00;101382.38;4991120;28;45428;-50
2022/06/02 07:48:59;;;;;;;;;8.00;8.00;;;;;21.50;37.23;101375.25;4976368;28;45188;-49
2022/06/02 07:51:36;;;;;;;;;6.25;6.25;;;;;21.51;36.58;101369.03;4976457;28;45602;-48
2022/06/02 07:54:22;;;;;;;;;8.75;7.25;;;;;21.56;36.57;101372.28;4976190;28;46160;-42
2022/06/02 07:56:56;;;;;;;;;5.75;5.75;;;;;21.59;36.71;101371.31;4976060;28;45353;-48
2022/06/02 07:59:30;;;;;;;;;6.50;5.00;;;;;21.59;36.93;101366.88;4976295;28;45502;-46
2022/06/02 08:02:01;;;;;;;;;6.00;6.00;;;;;21.59;36.75;101364.25;4976108;28;45371;-51
2022/06/02 08:04:50;;;;;;;;;6.75;6.75;;;;;21.64;36.85;101363.16;4975878;28;46358;-45
2022/06/02 08:07:38;;;;;;;;;5.00;5.00;;;;;21.65;36.67;101355.16;4975663;28;45327;-48
2022/06/02 08:10:46;;;;;;;;;5.00;5.00;;;;;21.65;36.66;101362.25;4976056;28;45360;-47
2022/06/02 08:13:42;;;;;;;;;5.25;5.00;;;;;21.65;36.75;101351.69;4977189;28;45389;-47
2022/06/02 08:16:19;;;;;;;;;5.75;5.75;;;;;21.70;36.81;101347.00;4979125;28;46217;-47
2022/06/02 08:19:03;;;;;;;;;6.75;6.50;;;;;21.70;36.17;101353.16;4979194;28;45852;-45
2022/06/02 08:21:35;;;;;;;;;5.25;5.00;;;;;21.70;36.02;101345.25;4979634;28;45225;-47
2022/06/02 08:24:19;;;;;;;;;7.00;5.00;;;;;21.69;36.08;101342.66;4979616;28;45575;-51
2022/06/02 08:27:09;;;;;;;;;4.50;4.50;;;;;21.70;36.43;101344.38;4978806;28;45362;-51
2022/06/02 08:29:55;;;;;;;;;7.25;5.00;;;;;21.71;35.99;101346.06;4978964;28;45414;-48
2022/06/02 08:33:04;;;;;;;;;5.75;5.25;;;;;21.71;36.09;101336.38;4978935;28;45259;-46
2022/06/02 08:36:03;;;;;;;;;6.50;5.00;;;;;21.71;35.63;101332.88;4979499;28;45667;-44
2022/06/02 08:38:47;;;;;;;;;7.00;7.00;;;;;21.71;35.32;101335.53;4978696;28;46346;-51
2022/06/02 08:41:41;;;;;;;;;5.25;5.00;;;;;21.69;35.77;101327.69;4977467;28;45270;-48
2022/06/02 08:44:32;;;;;;;;;7.25;5.75;;;;;21.68;35.45;101322.47;4978799;28;45330;-53
2022/06/02 08:47:35;;;;;;;;;5.00;4.75;;;;;21.66;35.09;101327.84;4968639;28;45504;-53
2022/06/02 08:50:22;;;;;;;;;6.00;5.25;;;;;21.65;34.82;101322.66;4979038;28;45393;-47
2022/06/02 08:53:17;;;;;;;;;7.00;5.00;;;;;21.64;35.19;101323.59;4978642;28;45302;-48
2022/06/02 08:56:10;;;;;;;;;5.75;5.00;;;;;21.64;35.13;101324.44;4978184;28;45564;-45
2022/06/02 08:59:09;;;;;;;;;6.00;6.00;;;;;21.64;35.21;101320.97;4975417;28;45311;-52
2022/06/02 09:02:00;;;;;;;;;6.75;6.50;;;;;21.64;35.27;101324.44;4959193;28;45398;-46
2022/06/02 09:05:04;;;;;;;;;8.00;7.00;;;;;21.65;35.64;101315.59;4968687;28;45315;-51
2022/06/02 09:07:35;;;;;;;;;9.25;9.00;;;;;21.66;35.74;101322.56;4977415;28;45399;-52
2022/06/02 09:10:00;;;;;;;;;11.75;7.25;;;;;21.67;35.79;101320.78;4978493;28;45452;-55
2022/06/02 09:12:54;;;;;;;;;9.00;7.00;;;;;21.67;35.50;101319.00;4977772;28;46002;-53
2022/06/02 09:15:38;;;;;;;;;10.00;6.75;;;;;21.67;35.59;101324.28;4978172;28;45412;-52
2022/06/02 09:18:10;;;;;;;;;8.00;8.00;;;;;21.70;35.49;101328.53;4978390;28;45353;-50
2022/06/02 09:21:01;;;;;;;;;7.25;6.75;;;;;21.70;35.46;101323.25;4977912;28;45503;-49
2022/06/02 09:23:58;;;;;;;;;7.25;6.00;;;;;21.70;35.25;101321.50;4977869;28;45656;-46
2022/06/02 09:26:54;;;;;;;;;6.00;6.00;;;;;21.72;35.70;101316.97;4977318;28;45680;-50
2022/06/02 09:29:32;;;;;;;;;7.00;5.25;;;;;21.73;35.81;101323.09;4977963;28;45401;-51
2022/06/02 09:32:27;;;;;;;;;7.00;7.00;;;;;21.74;35.61;101324.81;4977253;28;45295;-46
2022/06/02 09:35:13;;;;;;;;;6.75;5.75;;;;;21.75;35.15;101327.34;4973841;28;45490;-46
2022/06/02 09:37:50;;;;;;;;;5.25;5.25;;;;;21.77;35.00;101327.31;4976280;28;45898;-47
2022/06/02 09:40:54;;;;;;;;;5.00;4.75;;;;;21.77;35.26;101328.13;4977876;28;45370;-48
2022/06/02 09:43:42;;;;;;;;;5.25;5.25;;;;;21.77;35.15;101325.50;4965895;28;45769;-49
2022/06/02 09:46:24;;;;;;;;;4.25;4.25;;;;;21.80;34.87;101323.63;4977911;28;45594;-47
2022/06/02 09:49:12;;;;;;;;;5.75;4.50;;;;;21.81;35.10;101317.44;4977580;28;45345;-49
2022/06/02 09:51:43;;;;;;;;;5.00;5.00;;;;;21.81;35.09;101323.53;4977907;28;45387;-47
2022/06/02 09:54:33;;;;;;;;;5.50;5.25;;;;;21.81;35.31;101326.19;4977627;28;45486;-50
2022/06/02 10:00:30;;;;;;;;;6.00;4.75;;;;;21.83;35.05;101334.88;4977428;28;45841;-46
2022/06/02 10:03:32;;;;;;;;;4.00;4.00;;;;;21.84;34.79;101310.19;4966331;28;45463;-53
2022/06/02 10:06:01;;;;;;;;;5.00;4.75;;;;;21.85;34.94;101308.41;4977291;28;45706;-54
2022/06/02 10:08:49;;;;;;;;;4.00;4.00;;;;;21.85;35.13;101322.47;4976993;28;46156;-52
2022/06/02 10:11:51;;;;;;;;;6.00;5.00;;;;;21.86;34.88;101308.34;4974564;28;45240;-49
2022/06/02 10:14:35;;;;;;;;;4.75;4.00;;;;;21.85;34.75;101301.34;4977653;28;45345;-55
2022/06/02 10:17:25;;;;;;;;;7.00;5.00;;;;;21.87;35.15;101303.91;4977837;28;45398;-52
2022/06/02 10:20:09;;;;;;;;;4.00;4.00;;;;;21.87;34.73;101299.50;4992216;28;46135;-52
2022/06/02 10:23:01;;;;;;;;;7.00;6.00;;;;;21.87;34.46;101302.13;4977661;28;45221;-54
2022/06/02 10:25:57;;;;;;;;;4.50;4.50;;;;;21.90;35.10;101293.19;4969083;28;45343;-50
2022/06/02 10:28:41;;;;;;;;;6.25;5.00;;;;;21.92;34.48;101286.88;4977548;28;45407;-58
2022/06/02 10:31:31;;;;;;;;;5.00;5.00;;;;;21.96;34.70;101292.84;4977636;28;45362;-51
2022/06/02 10:34:27;;;;;;;;;4.50;4.50;;;;;21.98;34.30;101287.50;4977176;28;45361;-47
2022/06/02 10:36:56;;;;;;;;;5.75;4.75;;;;;21.97;34.47;101299.81;4976898;28;45439;-52
2022/06/02 10:39:41;;;;;;;;;3.00;2.75;;;;;21.98;34.40;101290.13;4977433;28;45352;-47
2022/06/02 10:42:29;;;;;;;;;4.25;4.25;;;;;21.97;34.15;101286.63;4977410;28;45668;-50
2022/06/02 10:45:13;;;;;;;;;6.50;4.25;;;;;21.97;34.42;101289.25;4977057;28;45915;-49
2022/06/02 10:47:59;;;;;;;;;7.00;5.25;;;;;21.98;34.19;101290.13;4977325;28;45365;-50
2022/06/02 10:50:56;;;;;;;;;4.00;4.00;;;;;21.98;33.94;101290.13;4977314;28;45459;-52
2022/06/02 10:53:53;;;;;;;;;5.00;5.00;;;;;21.98;34.35;101292.78;4976945;28;46228;-45
2022/06/02 10:56:54;;;;;;;;;4.00;4.00;;;;;21.97;33.81;101285.78;4976985;28;45376;-53
2022/06/02 10:59:34;;;;;;;;;4.00;4.00;;;;;21.97;33.91;101277.88;4977080;28;45239;-52
2022/06/02 11:02:14;;;;;;;;;4.00;4.00;;;;;21.99;33.92;101278.66;4977123;28;45401;-53
2022/06/02 11:05:20;;;;;;;;;4.25;4.25;;;;;21.98;34.04;101269.84;4977200;28;46150;-51
2022/06/02 11:07:48;;;;;;;;;7.75;5.00;;;;;21.99;33.75;101261.00;4976705;28;45817;-49
2022/06/02 11:10:48;;;;;;;;;5.00;5.00;;;;;21.98;33.79;101266.38;4976769;28;45315;-46
2022/06/02 11:13:32;;;;;;;;;5.25;4.25;;;;;22.00;33.52;101264.47;4976728;28;45412;-52
2022/06/02 11:16:03;;;;;;;;;5.00;3.25;;;;;22.00;33.75;101246.00;4976628;28;46262;-48
2022/06/02 11:19:06;;;;;;;;;3.75;3.50;;;;;22.01;33.81;101253.88;4976342;28;45340;-52
2022/06/02 11:22:09;;;;;;;;;6.00;5.00;;;;;22.03;34.12;101261.69;4976524;28;45456;-49
2022/06/02 11:24:46;;;;;;;;;5.00;5.00;;;;;22.05;34.00;101263.28;4976658;28;45259;-53
2022/06/02 11:27:51;;;;;;;;;6.00;5.00;;;;;22.06;33.92;101246.53;4976385;28;47018;-53
2022/06/02 11:30:23;;;;;;;;;5.00;5.00;;;;;22.08;34.09;101244.66;4976284;28;45740;-56
2022/06/02 11:32:54;;;;;;;;;4.25;4.25;;;;;22.09;33.96;101242.88;4976397;28;45317;-54
2022/06/02 11:35:43;;;;;;;;;4.25;4.00;;;;;22.09;33.76;101243.72;4976530;28;45582;-54
2022/06/02 11:38:26;;;;;;;;;5.00;5.00;;;;;22.10;34.05;101241.94;4976246;28;45360;-49
2022/06/02 11:41:20;;;;;;;;;4.50;3.25;;;;;22.10;34.14;101236.69;4991268;28;45260;-50
2022/06/02 11:44:09;;;;;;;;;3.50;3.50;;;;;22.09;33.86;101230.53;4976271;28;45410;-51
2022/06/02 11:46:54;;;;;;;;;4.75;4.00;;;;;22.10;34.11;101231.41;4975313;28;45500;-51
2022/06/02 11:49:53;;;;;;;;;5.75;5.00;;;;;22.09;34.06;101234.97;4978648;28;45702;-50
2022/06/02 11:52:37;;;;;;;;;6.00;4.00;;;;;22.08;33.72;101231.47;4979325;28;45784;-51
2022/06/02 11:55:33;;;;;;;;;7.00;5.00;;;;;22.05;33.99;101228.97;4979662;28;45376;-49
2022/06/02 11:58:36;;;;;;;;;6.50;5.00;;;;;22.05;33.67;101230.78;4979821;28;45407;-53
2022/06/02 12:01:16;;;;;;;;;4.00;4.00;;;;;22.04;33.67;101229.94;4979413;28;45352;-51
2022/06/02 12:04:09;;;;;;;;;6.25;4.75;;;;;22.04;33.78;101221.16;4979801;28;45552;-51
2022/06/02 12:06:52;;;;;;;;;3.00;3.00;;;;;22.03;33.59;101220.31;4979359;28;45314;-53
2022/06/02 12:09:53;;;;;;;;;4.00;4.00;;;;;22.02;33.74;101221.25;4979659;28;45455;-54
2022/06/02 12:12:30;;;;;;;;;5.00;5.00;;;;;22.02;33.77;101212.47;4979367;28;46211;-54
2022/06/02 12:15:17;;;;;;;;;3.50;3.50;;;;;22.03;33.59;101203.63;4979370;28;45934;-55
2022/06/02 12:18:00;;;;;;;;;4.00;4.00;;;;;22.03;33.62;101214.19;4979714;28;45455;-51
2022/06/02 12:20:56;;;;;;;;;4.00;4.00;;;;;22.02;33.68;101197.50;4979760;28;45226;-52
2022/06/02 12:23:39;;;;;;;;;5.75;4.00;;;;;22.03;33.87;101201.84;4979279;28;45409;-50
2022/06/02 12:26:29;;;;;;;;;5.00;5.00;;;;;22.03;33.55;101193.06;4979134;28;45974;-50
2022/06/02 12:29:25;;;;;;;;;4.00;4.00;;;;;22.04;33.54;101190.34;4979070;28;45369;-53
2022/06/02 12:32:16;;;;;;;;;4.00;4.00;;;;;22.05;33.80;101175.34;4979326;28;45372;-52
2022/06/02 12:34:57;;;;;;;;;6.00;4.50;;;;;22.05;33.54;101172.72;4979101;28;46133;-51
2022/06/02 12:37:28;;;;;;;;;3.50;3.50;;;;;22.06;33.81;101171.78;4979112;28;45911;-54
2022/06/02 12:40:15;;;;;;;;;5.25;4.50;;;;;22.05;33.48;101167.44;4979022;28;45353;-54
2022/06/02 12:43:20;;;;;;;;;3.50;2.75;;;;;22.06;33.29;101166.50;4979097;28;45396;-55
2022/06/02 12:46:23;;;;;;;;;3.75;3.75;;;;;22.06;33.78;101169.16;4994026;28;47197;-54
2022/06/02 12:49:07;;;;;;;;;5.75;5.00;;;;;22.06;33.36;101162.06;4978805;28;45853;-52
2022/06/02 12:51:48;;;;;;;;;4.50;4.25;;;;;22.06;33.54;101158.59;4978781;28;45369;-51
2022/06/02 12:54:50;;;;;;;;;5.25;4.00;;;;;22.07;33.39;101162.94;4979201;28;45540;-55